sensor_id;sensor_type;location;lat;lon;timestamp;P1;durP1;ratioP1;P2;durP2;ratioP2
43014;SDS011;28637;50.554;7.032;2023-01-10T00:02:31;5.20;;;1.70;;
43014;SDS011;28637;50.554;7.032;2023-01-10T00:07:31;9.63;;;2.17;;
43014;SDS011;28637;50.554;7.032;2023-01-10T00:12:32;4.70;;;2.10;;
43014;SDS011;28637;50.554;7.032;2023-01-10T00:17:51;6.10;;;2.10;;
43014;SDS011;28637;50.554;7.032;2023-01-10T00:22:52;4.78;;;1.80;;
43014;SDS011;28637;50.554;7.032;2023-01-10T00:27:53;6.82;;;1.92;;
43014;SDS011;28637;50.554;7.032;2023-01-10T00:33:14;3.50;;;1.83;;
43014;SDS011;28637;50.554;7.032;2023-01-10T00:38:18;6.18;;;1.63;;
43014;SDS011;28637;50.554;7.032;2023-01-10T00:43:19;6.50;;;1.95;;
43014;SDS011;28637;50.554;7.032;2023-01-10T00:48:38;4.85;;;1.90;;
43014;SDS011;28637;50.554;7.032;2023-01-10T00:53:40;6.45;;;1.95;;
43014;SDS011;28637;50.554;7.032;2023-01-10T00:58:41;5.78;;;2.10;;
43014;SDS011;28637;50.554;7.032;2023-01-10T01:03:43;6.82;;;2.25;;
43014;SDS011;28637;50.554;7.032;2023-01-10T01:08:44;5.72;;;2.55;;
43014;SDS011;28637;50.554;7.032;2023-01-10T01:13:44;7.78;;;2.40;;
43014;SDS011;28637;50.554;7.032;2023-01-10T01:18:45;6.13;;;2.30;;
43014;SDS011;28637;50.554;7.032;2023-01-10T01:23:46;5.65;;;2.30;;
43014;SDS011;28637;50.554;7.032;2023-01-10T01:28:46;9.70;;;2.35;;
43014;SDS011;28637;50.554;7.032;2023-01-10T01:33:47;7.13;;;2.58;;
43014;SDS011;28637;50.554;7.032;2023-01-10T01:38:48;8.70;;;2.40;;
43014;SDS011;28637;50.554;7.032;2023-01-10T01:43:59;7.38;;;2.53;;
43014;SDS011;28637;50.554;7.032;2023-01-10T01:49:13;6.68;;;2.38;;
43014;SDS011;28637;50.554;7.032;2023-01-10T01:54:19;8.38;;;3.30;;
43014;SDS011;28637;50.554;7.032;2023-01-10T01:59:22;10.63;;;2.80;;
43014;SDS011;28637;50.554;7.032;2023-01-10T02:04:28;8.20;;;2.78;;
43014;SDS011;28637;50.554;7.032;2023-01-10T02:09:54;13.43;;;2.88;;
43014;SDS011;28637;50.554;7.032;2023-01-10T02:15:00;6.50;;;3.00;;
43014;SDS011;28637;50.554;7.032;2023-01-10T02:20:05;8.68;;;3.15;;
43014;SDS011;28637;50.554;7.032;2023-01-10T02:25:16;7.85;;;2.95;;
43014;SDS011;28637;50.554;7.032;2023-01-10T02:35:58;10.00;;;2.50;;
43014;SDS011;28637;50.554;7.032;2023-01-10T02:46:27;7.20;;;2.15;;
43014;SDS011;28637;50.554;7.032;2023-01-10T02:51:30;11.35;;;2.45;;
43014;SDS011;28637;50.554;7.032;2023-01-10T02:56:44;9.32;;;2.45;;
43014;SDS011;28637;50.554;7.032;2023-01-10T03:07:22;8.25;;;2.40;;
43014;SDS011;28637;50.554;7.032;2023-01-10T03:12:56;7.25;;;2.75;;
43014;SDS011;28637;50.554;7.032;2023-01-10T03:18:01;9.05;;;2.00;;
43014;SDS011;28637;50.554;7.032;2023-01-10T03:23:05;7.32;;;2.03;;
43014;SDS011;28637;50.554;7.032;2023-01-10T03:28:07;8.30;;;2.20;;
43014;SDS011;28637;50.554;7.032;2023-01-10T03:33:14;6.88;;;2.50;;
43014;SDS011;28637;50.554;7.032;2023-01-10T03:38:20;6.63;;;2.05;;
43014;SDS011;28637;50.554;7.032;2023-01-10T03:48:55;11.52;;;2.28;;
43014;SDS011;28637;50.554;7.032;2023-01-10T03:54:00;6.68;;;2.42;;
43014;SDS011;28637;50.554;7.032;2023-01-10T03:59:02;8.43;;;2.15;;
43014;SDS011;28637;50.554;7.032;2023-01-10T04:04:02;8.30;;;1.85;;
43014;SDS011;28637;50.554;7.032;2023-01-10T04:09:03;5.40;;;1.88;;
43014;SDS011;28637;50.554;7.032;2023-01-10T04:14:04;4.80;;;1.52;;
43014;SDS011;28637;50.554;7.032;2023-01-10T04:19:05;11.30;;;2.40;;
43014;SDS011;28637;50.554;7.032;2023-01-10T04:24:06;9.40;;;2.10;;
43014;SDS011;28637;50.554;7.032;2023-01-10T04:29:07;7.35;;;1.85;;
43014;SDS011;28637;50.554;7.032;2023-01-10T04:34:07;5.80;;;2.40;;
43014;SDS011;28637;50.554;7.032;2023-01-10T04:39:08;7.83;;;2.07;;
43014;SDS011;28637;50.554;7.032;2023-01-10T04:44:10;10.45;;;2.10;;
43014;SDS011;28637;50.554;7.032;2023-01-10T04:49:11;8.32;;;2.10;;
43014;SDS011;28637;50.554;7.032;2023-01-10T04:54:12;7.50;;;2.00;;
43014;SDS011;28637;50.554;7.032;2023-01-10T04:59:13;10.55;;;2.60;;
43014;SDS011;28637;50.554;7.032;2023-01-10T05:04:14;7.80;;;2.30;;
43014;SDS011;28637;50.554;7.032;2023-01-10T05:09:14;4.57;;;2.08;;
43014;SDS011;28637;50.554;7.032;2023-01-10T05:14:15;7.32;;;1.80;;
43014;SDS011;28637;50.554;7.032;2023-01-10T05:19:15;7.10;;;2.03;;
43014;SDS011;28637;50.554;7.032;2023-01-10T05:24:16;10.60;;;2.50;;
43014;SDS011;28637;50.554;7.032;2023-01-10T05:29:17;6.50;;;2.22;;
43014;SDS011;28637;50.554;7.032;2023-01-10T05:34:18;9.43;;;2.10;;
43014;SDS011;28637;50.554;7.032;2023-01-10T05:39:18;8.88;;;2.65;;
43014;SDS011;28637;50.554;7.032;2023-01-10T05:44:20;12.68;;;2.25;;
43014;SDS011;28637;50.554;7.032;2023-01-10T05:49:21;7.95;;;2.10;;
43014;SDS011;28637;50.554;7.032;2023-01-10T05:54:21;8.27;;;1.95;;
43014;SDS011;28637;50.554;7.032;2023-01-10T05:59:22;6.57;;;2.45;;
43014;SDS011;28637;50.554;7.032;2023-01-10T06:04:22;12.48;;;2.15;;
43014;SDS011;28637;50.554;7.032;2023-01-10T06:09:23;15.55;;;2.20;;
43014;SDS011;28637;50.554;7.032;2023-01-10T06:14:24;8.68;;;2.10;;
43014;SDS011;28637;50.554;7.032;2023-01-10T06:19:24;6.97;;;2.42;;
43014;SDS011;28637;50.554;7.032;2023-01-10T06:24:25;16.20;;;2.47;;
43014;SDS011;28637;50.554;7.032;2023-01-10T06:29:26;10.13;;;2.00;;
43014;SDS011;28637;50.554;7.032;2023-01-10T06:34:26;12.50;;;2.70;;
43014;SDS011;28637;50.554;7.032;2023-01-10T06:39:27;10.75;;;2.25;;
43014;SDS011;28637;50.554;7.032;2023-01-10T06:44:28;9.47;;;2.27;;
43014;SDS011;28637;50.554;7.032;2023-01-10T06:49:29;8.23;;;2.00;;
43014;SDS011;28637;50.554;7.032;2023-01-10T06:54:30;15.20;;;2.67;;
43014;SDS011;28637;50.554;7.032;2023-01-10T06:59:30;14.05;;;2.40;;
43014;SDS011;28637;50.554;7.032;2023-01-10T07:04:31;10.63;;;1.97;;
43014;SDS011;28637;50.554;7.032;2023-01-10T07:09:31;10.52;;;1.80;;
43014;SDS011;28637;50.554;7.032;2023-01-10T07:14:32;9.10;;;2.45;;
43014;SDS011;28637;50.554;7.032;2023-01-10T07:19:33;13.50;;;2.13;;
43014;SDS011;28637;50.554;7.032;2023-01-10T07:24:34;9.30;;;1.98;;
43014;SDS011;28637;50.554;7.032;2023-01-10T07:29:34;7.43;;;1.98;;
43014;SDS011;28637;50.554;7.032;2023-01-10T07:34:35;11.87;;;2.13;;
43014;SDS011;28637;50.554;7.032;2023-01-10T07:39:36;17.17;;;2.55;;
43014;SDS011;28637;50.554;7.032;2023-01-10T07:44:37;10.90;;;2.20;;
43014;SDS011;28637;50.554;7.032;2023-01-10T07:49:43;11.02;;;2.45;;
43014;SDS011;28637;50.554;7.032;2023-01-10T07:54:44;25.65;;;7.32;;
43014;SDS011;28637;50.554;7.032;2023-01-10T07:59:45;14.27;;;2.30;;
43014;SDS011;28637;50.554;7.032;2023-01-10T08:04:46;12.02;;;2.15;;
43014;SDS011;28637;50.554;7.032;2023-01-10T08:09:48;11.05;;;1.98;;
43014;SDS011;28637;50.554;7.032;2023-01-10T08:14:49;10.15;;;1.95;;
43014;SDS011;28637;50.554;7.032;2023-01-10T08:19:50;11.18;;;1.90;;
43014;SDS011;28637;50.554;7.032;2023-01-10T08:24:51;16.17;;;2.50;;
43014;SDS011;28637;50.554;7.032;2023-01-10T08:29:52;10.70;;;2.30;;
43014;SDS011;28637;50.554;7.032;2023-01-10T08:34:52;10.88;;;1.98;;
43014;SDS011;28637;50.554;7.032;2023-01-10T08:39:53;8.63;;;2.33;;
43014;SDS011;28637;50.554;7.032;2023-01-10T08:44:54;14.70;;;2.08;;
43014;SDS011;28637;50.554;7.032;2023-01-10T08:49:54;14.83;;;2.40;;
43014;SDS011;28637;50.554;7.032;2023-01-10T08:54:55;14.25;;;2.50;;
43014;SDS011;28637;50.554;7.032;2023-01-10T09:00:04;13.82;;;2.45;;
43014;SDS011;28637;50.554;7.032;2023-01-10T09:05:13;15.57;;;2.33;;
43014;SDS011;28637;50.554;7.032;2023-01-10T09:10:14;10.70;;;1.98;;
43014;SDS011;28637;50.554;7.032;2023-01-10T09:15:16;12.13;;;2.60;;
43014;SDS011;28637;50.554;7.032;2023-01-10T09:20:17;15.73;;;1.83;;
43014;SDS011;28637;50.554;7.032;2023-01-10T09:25:17;13.48;;;1.73;;
43014;SDS011;28637;50.554;7.032;2023-01-10T09:30:18;8.40;;;1.33;;
43014;SDS011;28637;50.554;7.032;2023-01-10T09:35:19;13.80;;;2.17;;
43014;SDS011;28637;50.554;7.032;2023-01-10T09:51:09;13.13;;;2.25;;
43014;SDS011;28637;50.554;7.032;2023-01-10T09:56:22;12.02;;;2.28;;
43014;SDS011;28637;50.554;7.032;2023-01-10T10:01:26;10.18;;;1.83;;
43014;SDS011;28637;50.554;7.032;2023-01-10T10:06:35;15.40;;;2.22;;
43014;SDS011;28637;50.554;7.032;2023-01-10T10:11:45;8.57;;;1.80;;
43014;SDS011;28637;50.554;7.032;2023-01-10T10:38:24;12.57;;;2.00;;
43014;SDS011;28637;50.554;7.032;2023-01-10T10:43:32;14.93;;;1.75;;
43014;SDS011;28637;50.554;7.032;2023-01-10T10:48:38;13.07;;;2.35;;
43014;SDS011;28637;50.554;7.032;2023-01-10T10:53:47;15.60;;;2.95;;
43014;SDS011;28637;50.554;7.032;2023-01-10T10:58:48;13.35;;;2.20;;
43014;SDS011;28637;50.554;7.032;2023-01-10T11:04:01;10.82;;;1.85;;
43014;SDS011;28637;50.554;7.032;2023-01-10T11:09:20;9.60;;;1.80;;
43014;SDS011;28637;50.554;7.032;2023-01-10T11:14:47;12.68;;;2.03;;
43014;SDS011;28637;50.554;7.032;2023-01-10T11:19:57;11.52;;;1.42;;
43014;SDS011;28637;50.554;7.032;2023-01-10T11:24:59;12.05;;;2.50;;
43014;SDS011;28637;50.554;7.032;2023-01-10T11:30:02;10.98;;;2.05;;
43014;SDS011;28637;50.554;7.032;2023-01-10T11:35:08;8.02;;;1.50;;
43014;SDS011;28637;50.554;7.032;2023-01-10T11:40:22;9.32;;;1.73;;
43014;SDS011;28637;50.554;7.032;2023-01-10T11:45:28;13.75;;;2.30;;
43014;SDS011;28637;50.554;7.032;2023-01-10T11:50:33;12.55;;;1.58;;
43014;SDS011;28637;50.554;7.032;2023-01-10T11:55:36;11.98;;;1.80;;
43014;SDS011;28637;50.554;7.032;2023-01-10T12:00:42;13.43;;;2.22;;
43014;SDS011;28637;50.554;7.032;2023-01-10T12:05:55;13.40;;;2.13;;
43014;SDS011;28637;50.554;7.032;2023-01-10T12:11:06;11.13;;;2.22;;
43014;SDS011;28637;50.554;7.032;2023-01-10T12:21:31;9.52;;;1.92;;
43014;SDS011;28637;50.554;7.032;2023-01-10T12:26:41;7.60;;;1.75;;
43014;SDS011;28637;50.554;7.032;2023-01-10T12:31:43;10.25;;;2.28;;
43014;SDS011;28637;50.554;7.032;2023-01-10T12:52:47;11.63;;;1.92;;
43014;SDS011;28637;50.554;7.032;2023-01-10T12:58:14;9.38;;;1.80;;
43014;SDS011;28637;50.554;7.032;2023-01-10T13:03:23;7.07;;;1.58;;
43014;SDS011;28637;50.554;7.032;2023-01-10T13:08:34;10.60;;;2.17;;
43014;SDS011;28637;50.554;7.032;2023-01-10T13:13:41;11.07;;;2.33;;
43014;SDS011;28637;50.554;7.032;2023-01-10T13:19:02;18.08;;;6.40;;
43014;SDS011;28637;50.554;7.032;2023-01-10T13:29:38;10.18;;;2.00;;
43014;SDS011;28637;50.554;7.032;2023-01-10T13:34:41;6.07;;;1.73;;
43014;SDS011;28637;50.554;7.032;2023-01-10T13:39:42;9.10;;;2.00;;
43014;SDS011;28637;50.554;7.032;2023-01-10T13:50:00;8.30;;;1.77;;
43014;SDS011;28637;50.554;7.032;2023-01-10T13:55:01;6.32;;;1.85;;
43014;SDS011;28637;50.554;7.032;2023-01-10T14:05:52;9.27;;;2.05;;
43014;SDS011;28637;50.554;7.032;2023-01-10T14:11:06;8.63;;;1.75;;
43014;SDS011;28637;50.554;7.032;2023-01-10T14:16:26;11.80;;;1.83;;
43014;SDS011;28637;50.554;7.032;2023-01-10T14:21:28;12.55;;;1.90;;
43014;SDS011;28637;50.554;7.032;2023-01-10T14:26:35;8.65;;;1.70;;
43014;SDS011;28637;50.554;7.032;2023-01-10T14:31:37;7.32;;;2.00;;
43014;SDS011;28637;50.554;7.032;2023-01-10T14:37:00;10.32;;;1.60;;
43014;SDS011;28637;50.554;7.032;2023-01-10T14:42:22;12.77;;;2.15;;
43014;SDS011;28637;50.554;7.032;2023-01-10T14:47:30;10.43;;;2.08;;
43014;SDS011;28637;50.554;7.032;2023-01-10T14:52:32;14.35;;;2.20;;
43014;SDS011;28637;50.554;7.032;2023-01-10T14:57:33;13.10;;;2.33;;
43014;SDS011;28637;50.554;7.032;2023-01-10T15:02:34;19.10;;;2.85;;
43014;SDS011;28637;50.554;7.032;2023-01-10T15:07:35;12.60;;;2.53;;
43014;SDS011;28637;50.554;7.032;2023-01-10T15:12:37;18.35;;;1.92;;
43014;SDS011;28637;50.554;7.032;2023-01-10T15:17:38;10.60;;;2.20;;
43014;SDS011;28637;50.554;7.032;2023-01-10T15:22:40;8.82;;;2.05;;
43014;SDS011;28637;50.554;7.032;2023-01-10T15:27:49;13.55;;;2.45;;
43014;SDS011;28637;50.554;7.032;2023-01-10T15:32:53;8.57;;;1.88;;
43014;SDS011;28637;50.554;7.032;2023-01-10T15:38:21;15.38;;;2.35;;
43014;SDS011;28637;50.554;7.032;2023-01-10T15:43:26;10.93;;;2.35;;
43014;SDS011;28637;50.554;7.032;2023-01-10T15:48:35;11.27;;;2.20;;
43014;SDS011;28637;50.554;7.032;2023-01-10T15:53:52;14.60;;;2.25;;
43014;SDS011;28637;50.554;7.032;2023-01-10T15:59:04;7.90;;;1.63;;
43014;SDS011;28637;50.554;7.032;2023-01-10T16:04:21;5.82;;;1.42;;
43014;SDS011;28637;50.554;7.032;2023-01-10T16:09:22;8.53;;;1.70;;
43014;SDS011;28637;50.554;7.032;2023-01-10T16:14:22;8.73;;;1.75;;
43014;SDS011;28637;50.554;7.032;2023-01-10T16:19:23;11.38;;;1.70;;
43014;SDS011;28637;50.554;7.032;2023-01-10T16:24:25;8.68;;;1.50;;
43014;SDS011;28637;50.554;7.032;2023-01-10T16:29:31;5.00;;;1.20;;
43014;SDS011;28637;50.554;7.032;2023-01-10T16:34:33;5.70;;;1.20;;
43014;SDS011;28637;50.554;7.032;2023-01-10T16:39:33;2.72;;;0.90;;
43014;SDS011;28637;50.554;7.032;2023-01-10T16:44:34;3.08;;;1.00;;
43014;SDS011;28637;50.554;7.032;2023-01-10T16:49:35;4.13;;;0.90;;
43014;SDS011;28637;50.554;7.032;2023-01-10T16:54:35;4.70;;;1.33;;
43014;SDS011;28637;50.554;7.032;2023-01-10T17:04:38;2.92;;;0.80;;
43014;SDS011;28637;50.554;7.032;2023-01-10T17:09:39;1.98;;;0.93;;
43014;SDS011;28637;50.554;7.032;2023-01-10T17:14:39;2.05;;;0.85;;
43014;SDS011;28637;50.554;7.032;2023-01-10T17:19:40;3.85;;;1.10;;
43014;SDS011;28637;50.554;7.032;2023-01-10T17:24:41;2.57;;;1.10;;
43014;SDS011;28637;50.554;7.032;2023-01-10T17:34:48;2.70;;;0.88;;
43014;SDS011;28637;50.554;7.032;2023-01-10T17:39:49;5.28;;;0.95;;
43014;SDS011;28637;50.554;7.032;2023-01-10T17:44:50;3.08;;;0.98;;
43014;SDS011;28637;50.554;7.032;2023-01-10T17:49:50;5.80;;;1.08;;
43014;SDS011;28637;50.554;7.032;2023-01-10T18:00:03;3.10;;;0.97;;
43014;SDS011;28637;50.554;7.032;2023-01-10T18:05:04;2.15;;;0.73;;
43014;SDS011;28637;50.554;7.032;2023-01-10T18:10:05;2.07;;;0.80;;
43014;SDS011;28637;50.554;7.032;2023-01-10T18:15:07;1.67;;;0.77;;
43014;SDS011;28637;50.554;7.032;2023-01-10T18:20:09;1.95;;;0.60;;
43014;SDS011;28637;50.554;7.032;2023-01-10T18:25:10;1.10;;;0.60;;
43014;SDS011;28637;50.554;7.032;2023-01-10T18:30:10;2.60;;;0.70;;
43014;SDS011;28637;50.554;7.032;2023-01-10T18:35:11;3.80;;;1.20;;
43014;SDS011;28637;50.554;7.032;2023-01-10T18:40:12;5.05;;;2.10;;
43014;SDS011;28637;50.554;7.032;2023-01-10T18:45:13;4.82;;;0.80;;
43014;SDS011;28637;50.554;7.032;2023-01-10T18:50:14;0.45;;;0.38;;
43014;SDS011;28637;50.554;7.032;2023-01-10T18:55:15;3.53;;;0.47;;
43014;SDS011;28637;50.554;7.032;2023-01-10T19:00:16;2.90;;;0.70;;
43014;SDS011;28637;50.554;7.032;2023-01-10T19:05:16;2.75;;;0.50;;
43014;SDS011;28637;50.554;7.032;2023-01-10T19:10:17;1.67;;;0.60;;
43014;SDS011;28637;50.554;7.032;2023-01-10T19:15:18;2.80;;;0.60;;
43014;SDS011;28637;50.554;7.032;2023-01-10T19:20:19;2.25;;;0.65;;
43014;SDS011;28637;50.554;7.032;2023-01-10T19:25:19;1.90;;;0.70;;
43014;SDS011;28637;50.554;7.032;2023-01-10T19:30:20;1.88;;;0.50;;
43014;SDS011;28637;50.554;7.032;2023-01-10T19:35:21;2.65;;;0.85;;
43014;SDS011;28637;50.554;7.032;2023-01-10T19:40:22;3.50;;;0.77;;
43014;SDS011;28637;50.554;7.032;2023-01-10T19:45:24;1.63;;;0.60;;
43014;SDS011;28637;50.554;7.032;2023-01-10T19:50:24;0.68;;;0.55;;
43014;SDS011;28637;50.554;7.032;2023-01-10T19:55:25;1.65;;;0.70;;
43014;SDS011;28637;50.554;7.032;2023-01-10T20:00:28;1.30;;;0.50;;
43014;SDS011;28637;50.554;7.032;2023-01-10T20:05:28;1.23;;;0.40;;
43014;SDS011;28637;50.554;7.032;2023-01-10T20:10:33;0.20;;;0.20;;
43014;SDS011;28637;50.554;7.032;2023-01-10T20:15:34;1.65;;;0.40;;
43014;SDS011;28637;50.554;7.032;2023-01-10T20:20:34;0.30;;;0.25;;
43014;SDS011;28637;50.554;7.032;2023-01-10T20:25:35;0.40;;;0.32;;
43014;SDS011;28637;50.554;7.032;2023-01-10T20:30:36;1.17;;;0.38;;
43014;SDS011;28637;50.554;7.032;2023-01-10T20:35:37;0.88;;;0.32;;
43014;SDS011;28637;50.554;7.032;2023-01-10T20:40:39;4.03;;;0.55;;
43014;SDS011;28637;50.554;7.032;2023-01-10T20:45:40;1.15;;;0.32;;
43014;SDS011;28637;50.554;7.032;2023-01-10T20:50:41;0.70;;;0.45;;
43014;SDS011;28637;50.554;7.032;2023-01-10T21:00:46;1.50;;;0.43;;
43014;SDS011;28637;50.554;7.032;2023-01-10T21:05:47;1.15;;;0.50;;
43014;SDS011;28637;50.554;7.032;2023-01-10T21:10:49;0.30;;;0.30;;
43014;SDS011;28637;50.554;7.032;2023-01-10T21:15:51;1.55;;;0.35;;
43014;SDS011;28637;50.554;7.032;2023-01-10T21:20:56;0.35;;;0.35;;
43014;SDS011;28637;50.554;7.032;2023-01-10T21:31:01;0.30;;;0.30;;
43014;SDS011;28637;50.554;7.032;2023-01-10T21:36:02;1.20;;;0.30;;
43014;SDS011;28637;50.554;7.032;2023-01-10T21:41:07;0.63;;;0.20;;
43014;SDS011;28637;50.554;7.032;2023-01-10T21:46:11;0.40;;;0.40;;
43014;SDS011;28637;50.554;7.032;2023-01-10T21:51:11;1.20;;;0.28;;
43014;SDS011;28637;50.554;7.032;2023-01-10T21:56:12;0.85;;;0.30;;
43014;SDS011;28637;50.554;7.032;2023-01-10T22:01:13;1.30;;;0.23;;
43014;SDS011;28637;50.554;7.032;2023-01-10T22:06:14;1.00;;;0.30;;
43014;SDS011;28637;50.554;7.032;2023-01-10T22:11:15;0.52;;;0.30;;
43014;SDS011;28637;50.554;7.032;2023-01-10T22:16:15;0.83;;;0.30;;
43014;SDS011;28637;50.554;7.032;2023-01-10T22:21:16;0.20;;;0.20;;
43014;SDS011;28637;50.554;7.032;2023-01-10T22:26:18;0.55;;;0.28;;
43014;SDS011;28637;50.554;7.032;2023-01-10T22:31:19;0.40;;;0.20;;
43014;SDS011;28637;50.554;7.032;2023-01-10T22:36:19;0.30;;;0.20;;
43014;SDS011;28637;50.554;7.032;2023-01-10T22:41:21;0.20;;;0.20;;
43014;SDS011;28637;50.554;7.032;2023-01-10T22:46:25;0.50;;;0.30;;
43014;SDS011;28637;50.554;7.032;2023-01-10T22:51:26;0.28;;;0.20;;
43014;SDS011;28637;50.554;7.032;2023-01-10T22:56:27;0.50;;;0.40;;
43014;SDS011;28637;50.554;7.032;2023-01-10T23:01:28;0.38;;;0.28;;
43014;SDS011;28637;50.554;7.032;2023-01-10T23:06:37;2.70;;;0.30;;
43014;SDS011;28637;50.554;7.032;2023-01-10T23:11:41;0.43;;;0.30;;
43014;SDS011;28637;50.554;7.032;2023-01-10T23:16:42;0.63;;;0.10;;
43014;SDS011;28637;50.554;7.032;2023-01-10T23:21:43;0.10;;;0.10;;
43014;SDS011;28637;50.554;7.032;2023-01-10T23:26:44;1.20;;;0.17;;
43014;SDS011;28637;50.554;7.032;2023-01-10T23:31:44;0.15;;;0.10;;
43014;SDS011;28637;50.554;7.032;2023-01-10T23:36:48;0.30;;;0.20;;
43014;SDS011;28637;50.554;7.032;2023-01-10T23:41:49;0.00;;;0.00;;
43014;SDS011;28637;50.554;7.032;2023-01-10T23:46:49;0.00;;;0.00;;
43014;SDS011;28637;50.554;7.032;2023-01-10T23:51:50;0.68;;;0.10;;
43014;SDS011;28637;50.554;7.032;2023-01-10T23:56:51;0.90;;;0.10;;
